Time;durP1;ratioP1;P1;durP2;ratioP2;P2;SDS_P1;SDS_P2;PMS_P1;PMS_P2;Temp;Humidity;BMP_temperature;BMP_pressure;BME280_temperature;BME280_humidity;BME280_pressure;Samples;Min_cycle;Max_cycle;Signal;HPM_P1;HPM_P2
2021/05/16 00:00:38;;;;;;;;;;;;;;;11.08;83.06;98987.78;3454344;28;20298;-45
2021/05/16 00:02:19;;;;;;;;;;;;;;;11.04;82.95;98983.41;3455576;28;20292;-49
2021/05/16 00:04:01;;;;;;;;;;;;;;;11.02;83.02;98987.75;3454787;28;19929;-48
2021/05/16 00:05:42;;;;;;;;;;;;;;;11.00;83.41;98992.94;3456419;28;19985;-44
2021/05/16 00:07:23;;;;;;;;;;;;;;;10.99;83.56;98995.56;3455507;28;19977;-45
2021/05/16 00:09:04;;;;;;;;;;;;;;;10.96;83.40;98996.41;3454881;28;20788;-45
2021/05/16 00:10:46;;;;;;;;;;;;;;;10.94;83.58;99002.47;3455987;28;19981;-47
2021/05/16 00:12:27;;;;;;;;;;;;;;;10.92;83.66;98992.09;3454365;28;19971;-44
2021/05/16 00:14:09;;;;;;;;;;;;;;;10.89;83.56;98988.63;3453634;28;19930;-45
2021/05/16 00:15:51;;;;;;;;;;;;;;;10.87;83.58;99001.59;3455190;28;19933;-45
2021/05/16 00:17:32;;;;;;;;;;;;;;;10.84;83.76;98993.78;3456026;28;19933;-44
2021/05/16 00:19:13;;;;;;;;;;;;;;;10.80;83.58;98995.50;3454997;28;20402;-48
2021/05/16 00:20:54;;;;;;;;;;;;;;;10.77;83.45;98999.84;3455657;28;19973;-44
2021/05/16 00:22:36;;;;;;;;;;;;;;;10.72;83.61;99005.00;3455944;28;19937;-48
2021/05/16 00:24:18;;;;;;;;;;;;;;;10.68;83.70;99009.31;3455763;28;19980;-47
2021/05/16 00:25:59;;;;;;;;;;;;;;;10.67;84.41;99009.31;3455670;28;20032;-46
2021/05/16 00:27:40;;;;;;;;;;;;;;;10.65;84.63;99003.25;3455401;28;19956;-45
2021/05/16 00:29:21;;;;;;;;;;;;;;;10.61;84.64;99004.97;3455985;28;19936;-47
2021/05/16 00:31:03;;;;;;;;;;;;;;;10.61;85.01;99004.13;3455324;28;19929;-44
2021/05/16 00:32:45;;;;;;;;;;;;;;;10.60;84.97;98997.19;3455201;28;19930;-44
2021/05/16 00:34:26;;;;;;;;;;;;;;;10.58;84.92;99006.69;3455400;28;19969;-48
2021/05/16 00:36:07;;;;;;;;;;;;;;;10.57;85.09;99010.16;3455723;28;19965;-49
2021/05/16 00:37:48;;;;;;;;;;;;;;;10.53;85.30;99011.88;3456499;28;19938;-44
2021/05/16 00:39:29;;;;;;;;;;;;;;;10.52;85.17;99004.09;3454739;28;19933;-47
2021/05/16 00:41:10;;;;;;;;;;;;;;;10.48;84.83;99009.28;3454151;28;19930;-49
2021/05/16 00:42:52;;;;;;;;;;;;;;;10.46;84.50;99007.53;3455830;28;19964;-47
2021/05/16 00:44:33;;;;;;;;;;;;;;;10.43;84.06;99008.38;3454342;28;20351;-46
2021/05/16 00:46:14;;;;;;;;;;;;;;;10.41;84.18;98999.75;3455663;28;19929;-48
2021/05/16 00:48:01;;;;;;;;;;;;;;;10.42;84.27;99005.78;3454644;28;20020;-47
2021/05/16 00:49:42;;;;;;;;;;;;;;;10.40;84.87;99005.78;3455759;28;19934;-48
2021/05/16 00:51:23;;;;;;;;;;;;;;;10.38;84.64;99011.81;3454752;28;19976;-49
2021/05/16 00:53:04;;;;;;;;;;;;;;;10.36;85.21;99014.41;3454701;28;19930;-44
2021/05/16 00:54:45;;;;;;;;;;;;;;;10.34;84.88;99021.31;3455287;28;19929;-47
2021/05/16 00:56:26;;;;;;;;;;;;;;;10.30;85.46;99022.19;3455872;28;19980;-49
2021/05/16 00:58:09;;;;;;;;;;;;;;;10.26;85.35;99028.19;3457779;28;20128;-47
2021/05/16 00:59:50;;;;;;;;;;;;;;;10.23;85.99;99018.69;3456323;28;20383;-44
2021/05/16 01:01:32;;;;;;;;;;;;;;;10.22;86.32;99026.44;3457236;28;19930;-47
2021/05/16 01:03:13;;;;;;;;;;;;;;;10.23;86.26;99020.38;3456664;28;19969;-44
2021/05/16 01:04:54;;;;;;;;;;;;;;;10.22;86.27;99026.44;3457684;28;19933;-44
2021/05/16 01:06:36;;;;;;;;;;;;;;;10.22;86.24;99021.28;3457944;28;20337;-44
2021/05/16 01:08:17;;;;;;;;;;;;;;;10.20;86.02;99021.25;3456482;28;19980;-47
2021/05/16 01:09:59;;;;;;;;;;;;;;;10.20;86.06;99015.22;3457520;28;19930;-45
2021/05/16 01:11:44;;;;;;;;;;;;;;;10.19;85.98;99019.50;3457420;28;20002;-44
2021/05/16 01:13:26;;;;;;;;;;;;;;;10.16;86.10;99014.34;3455243;28;20453;-44
2021/05/16 01:15:08;;;;;;;;;;;;;;;10.15;85.99;99019.50;3456773;28;20354;-44
2021/05/16 01:16:50;;;;;;;;;;;;;;;10.13;86.27;99019.50;3457550;28;20433;-48
2021/05/16 01:18:31;;;;;;;;;;;;;;;10.11;86.23;99016.91;3457417;28;19984;-48
2021/05/16 01:20:14;;;;;;;;;;;;;;;10.08;86.18;99027.22;3455947;28;19969;-51
2021/05/16 01:21:56;;;;;;;;;;;;;;;10.07;86.56;99028.13;3457050;28;19986;-44
2021/05/16 01:23:46;;;;;;;;;;;;;;;10.05;86.23;99026.34;3455629;28;19930;-44
2021/05/16 01:25:28;;;;;;;;;;;;;;;10.04;86.43;99022.06;3456383;28;20413;-49
2021/05/16 01:27:10;;;;;;;;;;;;;;;10.03;86.53;99022.88;3456927;28;20006;-48
2021/05/16 01:28:51;;;;;;;;;;;;;;;10.02;86.54;99016.00;3455832;28;19973;-49
2021/05/16 01:30:33;;;;;;;;;;;;;;;10.00;86.37;99022.88;3457012;28;19965;-48
2021/05/16 01:32:14;;;;;;;;;;;;;;;9.97;86.43;99023.72;3457064;28;19971;-50
2021/05/16 01:33:55;;;;;;;;;;;;;;;9.96;86.39;99029.75;3456389;28;19929;-47
2021/05/16 01:35:37;;;;;;;;;;;;;;;9.94;86.81;99021.13;3455993;28;19984;-50
2021/05/16 01:37:19;;;;;;;;;;;;;;;9.91;86.68;99015.91;3457306;28;19979;-49
2021/05/16 01:39:00;;;;;;;;;;;;;;;9.89;86.84;99022.81;3455724;28;20527;-48
2021/05/16 01:40:42;;;;;;;;;;;;;;;9.86;86.37;99026.25;3456997;28;19929;-48
2021/05/16 01:42:25;;;;;;;;;;;;;;;9.86;86.35;99028.00;3456971;28;20457;-48
2021/05/16 01:44:09;;;;;;;;;;;;;;;9.82;86.42;99024.50;3456855;28;19929;-49
2021/05/16 01:45:51;;;;;;;;;;;;;;;9.80;86.91;99031.38;3456572;28;19937;-48
2021/05/16 01:47:32;;;;;;;;;;;;;;;9.79;86.77;99028.78;3456121;28;19929;-48
2021/05/16 01:49:13;;;;;;;;;;;;;;;9.76;86.87;99021.88;3456102;28;20409;-49
2021/05/16 01:50:54;;;;;;;;;;;;;;;9.76;87.25;99023.59;3456316;28;19929;-49
2021/05/16 01:52:36;;;;;;;;;;;;;;;9.73;87.26;99027.91;3455589;28;19980;-49
2021/05/16 01:54:18;;;;;;;;;;;;;;;9.73;87.08;99027.03;3456746;28;19933;-48
2021/05/16 01:56:00;;;;;;;;;;;;;;;9.71;87.42;99026.16;3455387;28;19929;-48
2021/05/16 01:57:41;;;;;;;;;;;;;;;9.69;87.42;99030.47;3456493;28;20296;-48
2021/05/16 01:59:23;;;;;;;;;;;;;;;9.68;87.33;99034.78;3455855;28;20034;-49
2021/05/16 02:01:04;;;;;;;;;;;;;;;9.68;87.59;99036.50;3457136;28;19965;-49
2021/05/16 02:02:45;;;;;;;;;;;;;;;9.68;87.63;99039.97;3456365;28;19929;-47
2021/05/16 02:04:27;;;;;;;;;;;;;;;9.66;87.75;99044.25;3455692;28;19929;-48
2021/05/16 02:06:09;;;;;;;;;;;;;;;9.65;87.94;99044.25;3456830;28;19936;-45
2021/05/16 02:07:51;;;;;;;;;;;;;;;9.63;87.82;99045.94;3454948;28;19937;-45
2021/05/16 02:09:32;;;;;;;;;;;;;;;9.62;87.97;99055.44;3456681;28;19933;-48
2021/05/16 02:11:13;;;;;;;;;;;;;;;9.60;87.77;99051.97;3455458;28;19929;-49
2021/05/16 02:12:54;;;;;;;;;;;;;;;9.61;87.90;99050.25;3455456;28;20403;-51
2021/05/16 02:14:36;;;;;;;;;;;;;;;9.59;87.72;99046.78;3455109;28;19929;-47
2021/05/16 02:16:17;;;;;;;;;;;;;;;9.59;88.03;99058.00;3455257;28;19961;-52
2021/05/16 02:18:00;;;;;;;;;;;;;;;9.59;88.04;99058.00;3456570;28;20312;-49
2021/05/16 02:19:42;;;;;;;;;;;;;;;9.59;88.02;99049.38;3456361;28;19933;-49
2021/05/16 02:21:23;;;;;;;;;;;;;;;9.60;87.99;99048.53;3456946;28;19930;-49
2021/05/16 02:23:05;;;;;;;;;;;;;;;9.57;87.53;99051.94;3456481;28;19949;-50
2021/05/16 02:24:46;;;;;;;;;;;;;;;9.54;87.34;99052.81;3455455;28;20426;-48
2021/05/16 02:26:28;;;;;;;;;;;;;;;9.52;87.75;99054.53;3456738;28;19936;-48
2021/05/16 02:28:09;;;;;;;;;;;;;;;9.53;87.85;99057.97;3455084;28;20453;-48
2021/05/16 02:29:50;;;;;;;;;;;;;;;9.50;88.14;99055.34;3456289;28;20147;-52
2021/05/16 02:31:31;;;;;;;;;;;;;;;9.50;88.33;99060.53;3456269;28;19940;-48
2021/05/16 02:33:12;;;;;;;;;;;;;;;9.52;88.51;99054.53;3456129;28;19936;-49
2021/05/16 02:34:54;;;;;;;;;;;;;;;9.55;88.75;99061.44;3455117;28;19929;-49
2021/05/16 02:36:35;;;;;;;;;;;;;;;9.56;88.92;99058.00;3456772;28;19979;-49
2021/05/16 02:38:17;;;;;;;;;;;;;;;9.58;88.92;99064.06;3455962;28;19929;-48
2021/05/16 02:39:58;;;;;;;;;;;;;;;9.60;89.05;99069.25;3456568;28;19930;-48
2021/05/16 02:41:39;;;;;;;;;;;;;;;9.61;89.05;99058.91;3456101;28;19945;-49
2021/05/16 02:43:20;;;;;;;;;;;;;;;9.62;88.94;99068.41;3456298;28;19933;-48
2021/05/16 02:45:02;;;;;;;;;;;;;;;9.64;88.84;99064.09;3456546;28;19929;-49
2021/05/16 02:46:43;;;;;;;;;;;;;;;9.66;88.84;99070.13;3456324;28;19929;-47
2021/05/16 02:48:24;;;;;;;;;;;;;;;9.68;88.99;99062.38;3455381;28;19933;-48
2021/05/16 02:50:07;;;;;;;;;;;;;;;9.69;89.09;99064.13;3455650;28;19930;-49
2021/05/16 02:51:48;;;;;;;;;;;;;;;9.72;88.83;99066.75;3455338;28;19972;-49
2021/05/16 02:53:29;;;;;;;;;;;;;;;9.75;88.73;99066.75;3456174;28;20387;-49
2021/05/16 02:55:11;;;;;;;;;;;;;;;9.77;89.05;99065.06;3454995;28;19973;-50
2021/05/16 02:56:52;;;;;;;;;;;;;;;9.80;88.76;99059.03;3455877;28;20406;-48
2021/05/16 02:58:34;;;;;;;;;;;;;;;9.83;88.82;99066.81;3456106;28;19937;-49
2021/05/16 03:00:15;;;;;;;;;;;;;;;9.86;88.99;99070.31;3455460;28;19936;-51
2021/05/16 03:01:56;;;;;;;;;;;;;;;9.88;88.67;99073.75;3455791;28;20023;-48
2021/05/16 03:03:38;;;;;;;;;;;;;;;9.89;88.70;99070.34;3455013;28;19929;-49
2021/05/16 03:05:19;;;;;;;;;;;;;;;9.91;88.77;99071.22;3456176;28;19930;-43
2021/05/16 03:07:00;;;;;;;;;;;;;;;9.96;88.84;99065.19;3455124;28;19934;-44
2021/05/16 03:08:42;;;;;;;;;;;;;;;9.99;89.01;99066.06;3455831;28;20398;-44
2021/05/16 03:10:23;;;;;;;;;;;;;;;10.03;88.96;99064.34;3454913;28;19929;-44
2021/05/16 03:12:06;;;;;;;;;;;;;;;10.06;88.89;99065.22;3455056;28;19929;-44
2021/05/16 03:13:47;;;;;;;;;;;;;;;10.10;89.03;99066.13;3452951;28;19930;-44
2021/05/16 03:15:28;;;;;;;;;;;;;;;10.16;89.06;99068.75;3448973;28;19929;-44
2021/05/16 03:17:09;;;;;;;;;;;;;;;10.21;89.34;99071.34;3454343;28;20390;-44
2021/05/16 03:18:50;;;;;;;;;;;;;;;10.25;89.12;99066.22;3454490;28;20476;-44
2021/05/16 03:20:32;;;;;;;;;;;;;;;10.30;89.03;99064.50;3454929;28;19980;-44
2021/05/16 03:22:13;;;;;;;;;;;;;;;10.34;89.33;99072.31;3454408;28;20311;-44
2021/05/16 03:23:55;;;;;;;;;;;;;;;10.40;89.26;99080.09;3455327;28;19960;-49
2021/05/16 03:25:36;;;;;;;;;;;;;;;10.44;89.77;99074.06;3455232;28;20045;-51
2021/05/16 03:27:18;;;;;;;;;;;;;;;10.52;90.05;99071.53;3456423;28;19969;-49
2021/05/16 03:28:59;;;;;;;;;;;;;;;10.59;90.15;99062.91;3455503;28;19929;-48
2021/05/16 03:30:40;;;;;;;;;;;;;;;10.66;89.90;99072.44;3454351;28;20046;-49
2021/05/16 03:32:21;;;;;;;;;;;;;;;10.71;89.50;99075.06;3455509;28;20272;-48
2021/05/16 03:34:03;;;;;;;;;;;;;;;10.77;89.74;99081.13;3454461;28;19952;-48
2021/05/16 03:35:44;;;;;;;;;;;;;;;10.85;90.00;99078.56;3456624;28;19969;-49
2021/05/16 03:37:25;;;;;;;;;;;;;;;10.96;90.46;99088.97;3454945;28;19929;-48
2021/05/16 03:39:07;;;;;;;;;;;;;;;11.09;90.96;99090.72;3454674;28;19992;-49
2021/05/16 03:40:49;;;;;;;;;;;;;;;11.22;91.25;99091.63;3455480;28;19972;-49
2021/05/16 03:42:31;;;;;;;;;;;;;;;11.35;91.08;99098.59;3454321;28;19933;-52
2021/05/16 03:44:12;;;;;;;;;;;;;;;11.47;90.79;99104.69;3455510;28;19976;-50
2021/05/16 03:45:53;;;;;;;;;;;;;;;11.57;90.87;99104.69;3454237;28;20440;-52
2021/05/16 03:47:35;;;;;;;;;;;;;;;11.73;91.48;99115.94;3455112;28;19969;-44
2021/05/16 03:49:16;;;;;;;;;;;;;;;11.88;91.17;99109.84;3455030;28;19936;-49
2021/05/16 03:50:57;;;;;;;;;;;;;;;12.00;90.59;99109.00;3454449;28;19929;-52
2021/05/16 03:52:39;;;;;;;;;;;;;;;12.09;90.12;99106.38;3455224;28;19936;-51
2021/05/16 03:54:21;;;;;;;;;;;;;;;12.18;89.66;99103.75;3454308;28;19933;-54
2021/05/16 03:56:02;;;;;;;;;;;;;;;12.27;89.34;99113.25;3455535;28;19980;-52
2021/05/16 03:57:43;;;;;;;;;;;;;;;12.37;89.47;99112.38;3454546;28;19992;-53
2021/05/16 03:59:24;;;;;;;;;;;;;;;12.49;89.15;99113.22;3455265;28;19980;-51
2021/05/16 04:01:06;;;;;;;;;;;;;;;12.58;89.00;99111.44;3454585;28;19937;-54
2021/05/16 04:02:47;;;;;;;;;;;;;;;12.69;88.60;99108.81;3454503;28;19936;-52
2021/05/16 04:04:28;;;;;;;;;;;;;;;12.79;88.28;99101.84;3455251;28;19965;-45
2021/05/16 04:06:09;;;;;;;;;;;;;;;12.89;88.07;99111.31;3454068;28;19929;-45
2021/05/16 04:07:51;;;;;;;;;;;;;;;12.99;87.67;99104.38;3455413;28;19937;-46
2021/05/16 04:09:33;;;;;;;;;;;;;;;13.06;86.83;99100.84;3454466;28;19933;-48
2021/05/16 04:11:14;;;;;;;;;;;;;;;13.14;85.78;99098.19;3455346;28;20371;-45
2021/05/16 04:12:55;;;;;;;;;;;;;;;13.22;85.87;99095.56;3454798;28;20398;-45
2021/05/16 04:14:36;;;;;;;;;;;;;;;13.32;85.87;99100.69;3451547;28;19969;-45
2021/05/16 04:16:17;;;;;;;;;;;;;;;13.41;86.00;99091.09;3455210;28;19965;-47
2021/05/16 04:17:58;;;;;;;;;;;;;;;13.51;85.74;99103.16;3454181;28;20366;-47
2021/05/16 04:19:40;;;;;;;;;;;;;;;13.61;85.64;99099.59;3455217;28;20387;-47
2021/05/16 04:21:21;;;;;;;;;;;;;;;13.71;85.05;99100.41;3455477;28;19991;-44
2021/05/16 04:23:02;;;;;;;;;;;;;;;13.80;84.47;99095.13;3454849;28;20284;-48
2021/05/16 04:24:44;;;;;;;;;;;;;;;13.91;84.37;99097.63;3454587;28;19973;-44
2021/05/16 04:26:25;;;;;;;;;;;;;;;14.00;83.90;99089.72;3454314;28;19936;-45
2021/05/16 04:28:06;;;;;;;;;;;;;;;14.12;84.01;99099.16;3454885;28;19996;-45
2021/05/16 04:29:47;;;;;;;;;;;;;;;14.22;84.10;99094.72;3455515;28;19999;-45
2021/05/16 04:31:29;;;;;;;;;;;;;;;14.32;83.96;99096.38;3455751;28;19961;-44
2021/05/16 04:33:10;;;;;;;;;;;;;;;14.43;83.29;99093.66;3456234;28;19968;-45
2021/05/16 04:34:51;;;;;;;;;;;;;;;14.54;83.00;99104.84;3457779;28;19972;-45
2021/05/16 04:36:32;;;;;;;;;;;;;;;14.64;83.15;99093.41;3457604;28;19929;-45
2021/05/16 04:38:13;;;;;;;;;;;;;;;14.75;83.12;99095.88;3458073;28;20360;-45
2021/05/16 04:39:55;;;;;;;;;;;;;;;14.87;83.06;99096.59;3456985;28;19929;-46
2021/05/16 04:41:36;;;;;;;;;;;;;;;14.96;83.08;99086.03;3456429;28;20409;-45
2021/05/16 04:43:17;;;;;;;;;;;;;;;15.05;82.44;99083.31;3457765;28;19972;-51
2021/05/16 04:44:58;;;;;;;;;;;;;;;15.17;82.24;99092.69;3457429;28;19965;-52
2021/05/16 04:46:40;;;;;;;;;;;;;;;15.28;81.95;99097.81;3457384;28;19930;-52
2021/05/16 04:48:21;;;;;;;;;;;;;;;15.39;81.76;99083.66;3456114;28;19933;-52
2021/05/16 04:50:02;;;;;;;;;;;;;;;15.51;81.48;99090.47;3456555;28;20342;-52
2021/05/16 04:51:43;;;;;;;;;;;;;;;15.63;80.94;99093.78;3456711;28;19976;-53
2021/05/16 04:53:28;;;;;;;;;;;;;;;15.73;80.66;99095.38;3458091;28;19936;-46
2021/05/16 04:55:10;;;;;;;;;;;;;;;15.85;80.46;99086.47;3457112;28;19929;-47
2021/05/16 04:56:51;;;;;;;;;;;;;;;15.96;80.21;99084.50;3457455;28;20025;-45
2021/05/16 04:58:33;;;;;;;;;;;;;;;16.04;79.80;99077.41;3457498;28;19952;-48
2021/05/16 05:00:15;;;;;;;;;;;;;;;16.13;79.51;99082.44;3456487;28;19929;-45
2021/05/16 05:01:56;;;;;;;;;;;;;;;16.26;79.49;99082.22;3456600;28;19929;-46
2021/05/16 05:03:38;;;;;;;;;;;;;;;16.36;79.08;99089.03;3456696;28;20461;-46
2021/05/16 05:05:19;;;;;;;;;;;;;;;16.45;77.59;99077.50;3456473;28;19938;-50
2021/05/16 05:07:00;;;;;;;;;;;;;;;16.53;77.61;99078.22;3456937;28;19930;-51
2021/05/16 05:08:41;;;;;;;;;;;;;;;16.64;77.50;99078.84;3456894;28;20410;-53
2021/05/16 05:10:23;;;;;;;;;;;;;;;16.75;77.01;99076.03;3457335;28;19933;-50
2021/05/16 05:12:05;;;;;;;;;;;;;;;16.87;76.39;99069.69;3455616;28;19930;-51
2021/05/16 05:13:47;;;;;;;;;;;;;;;16.95;76.22;99070.38;3456341;28;19941;-51
2021/05/16 05:15:28;;;;;;;;;;;;;;;17.03;75.71;99067.59;3456799;28;19972;-51
2021/05/16 05:17:09;;;;;;;;;;;;;;;17.15;75.54;99074.31;3457558;28;19930;-52
2021/05/16 05:18:50;;;;;;;;;;;;;;;17.25;75.47;99062.72;3457041;28;19930;-46
2021/05/16 05:20:32;;;;;;;;;;;;;;;17.36;75.39;99068.59;3457686;28;19941;-45
2021/05/16 05:22:13;;;;;;;;;;;;;;;17.47;74.75;99063.06;3456990;28;20391;-52
2021/05/16 05:23:54;;;;;;;;;;;;;;;17.55;73.61;99058.50;3457261;28;19929;-52
2021/05/16 05:25:36;;;;;;;;;;;;;;;17.62;73.77;99052.22;3458019;28;19984;-49
2021/05/16 05:27:17;;;;;;;;;;;;;;;17.74;74.59;99052.78;3455448;28;19945;-50
2021/05/16 05:28:58;;;;;;;;;;;;;;;17.83;73.59;99050.81;3455933;28;19930;-49
2021/05/16 05:30:39;;;;;;;;;;;;;;;17.93;72.42;99050.59;3455720;28;19936;-52
2021/05/16 05:32:20;;;;;;;;;;;;;;;18.05;72.93;99052.91;3455628;28;19956;-49
2021/05/16 05:34:02;;;;;;;;;;;;;;;18.18;72.81;99051.66;3456812;28;19929;-50
2021/05/16 05:35:43;;;;;;;;;;;;;;;18.28;71.99;99052.28;3455863;28;19983;-49
2021/05/16 05:37:24;;;;;;;;;;;;;;;18.39;71.70;99057.22;3456342;28;19983;-51
2021/05/16 05:39:06;;;;;;;;;;;;;;;18.50;71.49;99056.91;3456301;28;19929;-49
2021/05/16 05:40:48;;;;;;;;;;;;;;;18.58;70.01;99054.94;3455886;28;19933;-50
2021/05/16 05:42:29;;;;;;;;;;;;;;;18.68;70.46;99056.38;3456353;28;19936;-49
2021/05/16 05:44:10;;;;;;;;;;;;;;;18.78;69.50;99054.34;3454681;28;20297;-49
2021/05/16 05:45:52;;;;;;;;;;;;;;;18.83;68.32;99064.72;3456885;28;19937;-49
2021/05/16 05:47:33;;;;;;;;;;;;;;;18.88;68.29;99058.47;3455749;28;19929;-50
2021/05/16 05:49:16;;;;;;;;;;;;;;;18.99;68.76;99058.13;3456173;28;19936;-50
2021/05/16 05:50:57;;;;;;;;;;;;;;;19.09;68.79;99054.31;3456045;28;19929;-47
2021/05/16 05:52:38;;;;;;;;;;;;;;;19.20;67.27;99053.97;3457512;28;19987;-46
2021/05/16 05:54:19;;;;;;;;;;;;;;;19.29;68.34;99055.47;3456481;28;19929;-46
2021/05/16 05:56:01;;;;;;;;;;;;;;;19.39;67.05;99056.88;3457120;28;20537;-47
2021/05/16 05:57:42;;;;;;;;;;;;;;;19.50;66.17;99056.53;3448299;28;19938;-51
2021/05/16 05:59:23;;;;;;;;;;;;;;;19.60;65.06;99062.34;3443466;28;19930;-48
2021/05/16 06:01:05;;;;;;;;;;;;;;;19.67;64.35;99058.59;3454335;28;20406;-45
2021/05/16 06:02:46;;;;;;;;;;;;;;;19.73;64.80;99061.88;3455312;28;19972;-47
2021/05/16 06:04:27;;;;;;;;;;;;;;;19.84;64.52;99058.06;3455738;28;19993;-46
2021/05/16 06:06:09;;;;;;;;;;;;;;;19.96;64.69;99059.44;3456435;28;20291;-46
2021/05/16 06:07:50;;;;;;;;;;;;;;;20.07;64.92;99065.16;3455504;28;19936;-46
2021/05/16 06:09:32;;;;;;;;;;;;;;;20.19;65.10;99063.88;3457162;28;19941;-48
2021/05/16 06:11:13;;;;;;;;;;;;;;;20.25;61.71;99055.75;3455275;28;20314;-50
2021/05/16 06:12:55;;;;;;;;;;;;;;;20.24;61.92;99056.69;3457835;28;19933;-45
2021/05/16 06:14:36;;;;;;;;;;;;;;;20.18;62.16;99063.00;3454797;28;19937;-45
2021/05/16 06:16:17;;;;;;;;;;;;;;;20.13;62.10;99071.09;3456690;28;20315;-48
2021/05/16 06:18:01;;;;;;;;;;;;;;;20.19;61.71;99069.16;3456202;28;19929;-46
2021/05/16 06:19:42;;;;;;;;;;;;;;;20.30;62.36;99067.00;3455131;28;19929;-45
2021/05/16 06:21:23;;;;;;;;;;;;;;;20.38;60.12;99066.72;3456783;28;19930;-48
2021/05/16 06:23:06;;;;;;;;;;;;;;;20.47;62.47;99071.66;3454980;28;20481;-47
2021/05/16 06:24:47;;;;;;;;;;;;;;;20.56;60.43;99073.94;3456665;28;19937;-47
2021/05/16 06:26:29;;;;;;;;;;;;;;;20.61;57.98;99072.00;3455881;28;20398;-47
2021/05/16 06:28:10;;;;;;;;;;;;;;;20.70;58.79;99073.44;3455210;28;19969;-47
2021/05/16 06:29:51;;;;;;;;;;;;;;;20.65;55.27;99072.75;3456244;28;19934;-48
2021/05/16 06:31:33;;;;;;;;;;;;;;;20.56;57.73;99078.38;3455226;28;19929;-48
2021/05/16 06:33:14;;;;;;;;;;;;;;;20.57;56.02;99077.44;3456330;28;20389;-48
2021/05/16 06:34:55;;;;;;;;;;;;;;;20.59;56.63;99080.88;3455392;28;19929;-45
2021/05/16 06:36:37;;;;;;;;;;;;;;;20.61;55.60;99077.28;3456446;28;20302;-46
2021/05/16 06:38:18;;;;;;;;;;;;;;;20.65;54.95;99075.38;3455752;28;20370;-46
2021/05/16 06:39:59;;;;;;;;;;;;;;;20.74;55.11;99069.81;3457005;28;19934;-48
2021/05/16 06:41:41;;;;;;;;;;;;;;;20.79;54.90;99067.84;3456097;28;19936;-49
2021/05/16 06:43:22;;;;;;;;;;;;;;;20.84;53.14;99065.06;3455402;28;19934;-46
2021/05/16 06:45:04;;;;;;;;;;;;;;;20.90;54.27;99070.06;3456456;28;19929;-48
2021/05/16 06:46:45;;;;;;;;;;;;;;;20.93;54.04;99066.47;3456398;28;19979;-48
2021/05/16 06:48:26;;;;;;;;;;;;;;;20.89;53.49;99068.38;3455923;28;19929;-48
2021/05/16 06:50:09;;;;;;;;;;;;;;;20.94;54.28;99079.63;3455178;28;19965;-48
2021/05/16 06:51:50;;;;;;;;;;;;;;;21.00;54.87;99074.09;3455536;28;19930;-48
2021/05/16 06:53:32;;;;;;;;;;;;;;;21.11;54.86;99075.44;3456268;28;19992;-49
2021/05/16 06:55:13;;;;;;;;;;;;;;;21.20;54.24;99072.44;3454667;28;19929;-48
2021/05/16 06:56:55;;;;;;;;;;;;;;;21.30;54.01;99065.03;3456429;28;19977;-47
2021/05/16 06:58:36;;;;;;;;;;;;;;;21.41;54.98;99071.59;3455141;28;19933;-46
2021/05/16 07:00:17;;;;;;;;;;;;;;;21.45;53.85;99067.03;3456046;28;19969;-51
2021/05/16 07:01:58;;;;;;;;;;;;;;;21.44;53.59;99067.97;3455911;28;19948;-47
2021/05/16 07:03:41;;;;;;;;;;;;;;;21.49;52.73;99070.41;3456379;28;19935;-46
2021/05/16 07:05:22;;;;;;;;;;;;;;;21.62;52.13;99072.53;3455900;28;19968;-46
2021/05/16 07:07:04;;;;;;;;;;;;;;;21.81;51.02;99072.63;3454611;28;19972;-46
2021/05/16 07:08:46;;;;;;;;;;;;;;;21.92;50.10;99061.59;3455877;28;19964;-47
2021/05/16 07:10:27;;;;;;;;;;;;;;;21.91;50.04;99069.59;3454978;28;19929;-47
2021/05/16 07:12:10;;;;;;;;;;;;;;;21.93;53.08;99071.25;3455418;28;19929;-46
2021/05/16 07:13:51;;;;;;;;;;;;;;;21.89;49.01;99079.38;3453695;28;19980;-46
2021/05/16 07:15:33;;;;;;;;;;;;;;;21.85;48.54;99067.22;3454996;28;20175;-46
2021/05/16 07:17:14;;;;;;;;;;;;;;;21.81;48.04;99074.41;3455695;28;19933;-47
2021/05/16 07:18:56;;;;;;;;;;;;;;;21.78;50.12;99074.53;3454695;28;20391;-46
2021/05/16 07:20:37;;;;;;;;;;;;;;;21.82;48.72;99073.47;3456073;28;19929;-46
2021/05/16 07:22:18;;;;;;;;;;;;;;;21.95;50.69;99076.47;3456081;28;19929;-46
2021/05/16 07:23:59;;;;;;;;;;;;;;;22.06;50.21;99079.50;3455758;28;19929;-48
2021/05/16 07:25:40;;;;;;;;;;;;;;;22.17;50.12;99073.75;3456073;28;20073;-47
2021/05/16 07:27:22;;;;;;;;;;;;;;;22.29;48.79;99075.00;3455098;28;19965;-47
2021/05/16 07:29:04;;;;;;;;;;;;;;;22.43;49.53;99085.81;3455357;28;19930;-47
2021/05/16 07:30:45;;;;;;;;;;;;;;;22.55;48.18;99087.97;3454683;28;19929;-47
2021/05/16 07:32:26;;;;;;;;;;;;;;;22.63;46.21;99084.97;3442253;28;20525;-46
2021/05/16 07:34:07;;;;;;;;;;;;;;;22.71;46.95;99082.00;3451194;28;19930;-46
2021/05/16 07:35:48;;;;;;;;;;;;;;;22.75;45.69;99092.34;3456137;28;19968;-48
2021/05/16 07:37:30;;;;;;;;;;;;;;;22.68;45.16;99088.25;3455867;28;20461;-46
2021/05/16 07:39:11;;;;;;;;;;;;;;;22.67;45.25;99094.50;3454866;28;19929;-46
2021/05/16 07:40:52;;;;;;;;;;;;;;;22.64;46.19;99086.69;3455388;28;20425;-47
2021/05/16 07:42:34;;;;;;;;;;;;;;;22.67;45.54;99088.31;3454386;28;20428;-47
2021/05/16 07:44:27;;;;;;;;;;;;;;;22.71;44.91;99080.19;3442738;28;19946;-48
2021/05/16 07:46:09;;;;;;;;;;;;;;;22.80;46.30;99075.41;3452661;28;19937;-46
2021/05/16 07:47:50;;;;;;;;;;;;;;;22.92;46.44;99067.78;3455403;28;20366;-47
2021/05/16 07:49:31;;;;;;;;;;;;;;;23.05;45.88;99064.53;3454798;28;19957;-47
2021/05/16 07:51:12;;;;;;;;;;;;;;;23.19;45.48;99070.03;3454767;28;19940;-49
2021/05/16 07:52:53;;;;;;;;;;;;;;;23.30;44.53;99061.59;3454970;28;19937;-46
2021/05/16 07:54:34;;;;;;;;;;;;;;;23.41;46.74;99058.44;3454706;28;20003;-50
2021/05/16 07:56:15;;;;;;;;;;;;;;;23.44;42.24;99056.50;3455568;28;19968;-47
2021/05/16 07:57:57;;;;;;;;;;;;;;;23.40;42.45;99060.25;3454460;28;19975;-48
2021/05/16 07:59:38;;;;;;;;;;;;;;;23.36;42.94;99057.81;3455572;28;19956;-47
2021/05/16 08:01:19;;;;;;;;;;;;;;;23.41;43.76;99054.00;3455552;28;20311;-46
2021/05/16 08:03:01;;;;;;;;;;;;;;;23.42;43.64;99055.72;3454826;28;19975;-46
2021/05/16 08:04:42;;;;;;;;;;;;;;;23.41;42.41;99066.38;3455006;28;20035;-47
2021/05/16 08:06:23;;;;;;;;;;;;;;;23.40;43.27;99054.94;3455266;28;19937;-47
2021/05/16 08:08:04;;;;;;;;;;;;;;;23.51;45.01;99063.19;3458562;28;20019;-46
2021/05/16 08:09:45;;;;;;;;;;;;;;;23.64;43.14;99059.94;3456692;28;19936;-46
2021/05/16 08:11:27;;;;;;;;;;;;;;;23.71;45.18;99058.69;3457884;28;19965;-46
2021/05/16 08:13:08;;;;;;;;;;;;;;;23.72;43.83;99055.13;3454303;28;19930;-46
2021/05/16 08:14:50;;;;;;;;;;;;;;;23.81;44.13;99052.00;3458949;28;20456;-46
2021/05/16 08:16:33;;;;;;;;;;;;;;;23.82;41.30;99050.22;3457285;28;20299;-46
2021/05/16 08:18:14;;;;;;;;;;;;;;;23.85;42.12;99048.28;3456953;28;19956;-46
2021/05/16 08:19:55;;;;;;;;;;;;;;;23.90;43.50;99058.63;3457809;28;19969;-45
2021/05/16 08:21:37;;;;;;;;;;;;;;;23.93;40.95;99055.00;3458214;28;20314;-46
2021/05/16 08:23:18;;;;;;;;;;;;;;;24.00;43.36;99059.88;3458147;28;20004;-47
2021/05/16 08:25:00;;;;;;;;;;;;;;;24.14;43.59;99053.06;3456851;28;19929;-47
2021/05/16 08:26:42;;;;;;;;;;;;;;;24.28;42.17;99056.69;3458428;28;20386;-47
2021/05/16 08:28:25;;;;;;;;;;;;;;;24.46;41.24;99054.84;3457201;28;20445;-48
2021/05/16 08:30:07;;;;;;;;;;;;;;;24.63;42.04;99058.38;3456379;28;20375;-46
2021/05/16 08:31:48;;;;;;;;;;;;;;;24.78;43.10;99054.06;3457648;28;19973;-46
2021/05/16 08:33:30;;;;;;;;;;;;;;;24.86;40.23;99057.19;3456620;28;20336;-47
2021/05/16 08:35:11;;;;;;;;;;;;;;;24.77;39.31;99055.00;3457846;28;19929;-49
2021/05/16 08:36:52;;;;;;;;;;;;;;;24.48;39.71;99063.59;3455338;28;19996;-47
2021/05/16 08:38:34;;;;;;;;;;;;;;;24.37;41.33;99068.59;3457999;28;20374;-49
2021/05/16 08:40:17;;;;;;;;;;;;;;;24.26;37.88;99058.56;3456042;28;19930;-51
2021/05/16 08:41:58;;;;;;;;;;;;;;;24.26;40.31;99058.56;3456381;28;19933;-46
2021/05/16 08:43:42;;;;;;;;;;;;;;;24.25;40.42;99058.66;3457849;28;19979;-47
2021/05/16 08:45:23;;;;;;;;;;;;;;;24.31;40.08;99050.34;3456395;28;20350;-46
2021/05/16 08:47:06;;;;;;;;;;;;;;;24.44;39.10;99050.59;3456907;28;19929;-46
2021/05/16 08:48:48;;;;;;;;;;;;;;;24.51;39.07;99044.00;3456556;28;20345;-47